Time;durP1;ratioP1;P1;durP2;ratioP2;P2;SDS_P1;SDS_P2;PMS_P1;PMS_P2;Temp;Humidity;BMP_temperature;BMP_pressure;BME280_temperature;BME280_humidity;BME280_pressure;Samples;Min_cycle;Max_cycle;Signal;HPM_P1;HPM_P2
2023/04/01 00:01:56;;;;;;;4.75;1.60;;;;;;;10.66;100.00;98501.44;6246431;28;20048;-76
2023/04/01 00:04:57;;;;;;;4.18;1.60;;;;;;;10.65;100.00;98494.59;6275926;28;20052;-75
2023/04/01 00:08:00;;;;;;;3.03;1.67;;;;;;;10.54;100.00;98505.94;6242456;28;20111;-75
2023/04/01 00:11:01;;;;;;;11.55;2.10;;;;;;;10.54;100.00;98499.88;6242245;28;20073;-75
2023/04/01 00:14:02;;;;;;;2.30;1.10;;;;;;;10.47;100.00;98500.41;6238369;28;20049;-75
2023/04/01 00:17:03;;;;;;;2.35;1.45;;;;;;;10.40;100.00;98493.25;6263605;28;20049;-75
2023/04/01 00:20:05;;;;;;;3.75;1.58;;;;;;;10.46;100.00;98485.75;6229682;28;20132;-75
2023/04/01 00:23:06;;;;;;;3.75;1.50;;;;;;;10.48;100.00;98483.00;6232413;28;20065;-75
2023/04/01 00:26:07;;;;;;;2.63;1.50;;;;;;;10.45;100.00;98491.06;6228195;28;20091;-75
2023/04/01 00:29:08;;;;;;;3.22;1.63;;;;;;;10.47;100.00;98497.81;6223619;28;20041;-75
2023/04/01 00:32:09;;;;;;;3.13;1.90;;;;;;;10.47;100.00;98481.34;6251037;28;20049;-75
2023/04/01 00:35:10;;;;;;;5.32;2.00;;;;;;;10.52;100.00;98484.38;6248579;28;20497;-81
2023/04/01 00:38:11;;;;;;;2.97;1.70;;;;;;;10.53;100.00;98483.44;6229467;28;20033;-80
2023/04/01 00:41:14;;;;;;;10.57;1.55;;;;;;;10.51;100.00;98487.13;6266669;28;20050;-80
2023/04/01 00:44:24;;;;;;;4.43;1.73;;;;;;;10.60;100.00;98487.13;6235290;28;20048;-81
2023/04/01 00:47:28;;;;;;;3.65;1.95;;;;;;;10.58;100.00;98483.84;6247466;28;20034;-80
2023/04/01 00:50:30;;;;;;;5.20;2.03;;;;;;;10.56;100.00;98487.53;6232256;28;20413;-81
2023/04/01 00:53:32;;;;;;;;;;;;;;;10.61;100.00;98483.59;6225830;28;20493;-81
2023/04/01 00:56:48;;;;;;;4.33;1.90;;;;;;;10.60;100.00;98474.09;6263935;28;19931;-80
2023/04/01 00:59:52;;;;;;;4.60;2.08;;;;;;;10.53;100.00;98467.78;6256898;28;20099;-81
2023/04/01 01:02:53;;;;;;;3.80;2.15;;;;;;;10.62;100.00;98469.59;6274663;28;20047;-81
2023/04/01 01:05:57;;;;;;;1.88;1.63;;;;;;;10.54;100.00;98468.59;6238456;28;20405;-80
2023/04/01 01:09:07;;;;;;;4.15;2.20;;;;;;;10.46;100.00;98464.06;6247565;28;20045;-81
2023/04/01 01:12:21;;;;;;;5.40;1.65;;;;;;;10.44;100.00;98456.38;6241407;28;20042;-80
2023/04/01 01:15:34;;;;;;;5.30;1.75;;;;;;;10.54;100.00;98450.34;6255857;28;21642;-81
2023/04/01 01:18:47;;;;;;;6.90;1.92;;;;;;;10.74;100.00;98440.78;6274479;28;20044;-80
2023/04/01 01:21:59;;;;;;;4.30;1.90;;;;;;;10.73;100.00;98441.75;6272118;28;20124;-81
2023/04/01 01:25:21;;;;;;;3.78;1.95;;;;;;;10.76;100.00;98438.88;6259189;28;20037;-81
2023/04/01 01:28:40;;;;;;;7.38;2.20;;;;;;;10.79;100.00;98430.78;6261941;28;20048;-81
2023/04/01 01:32:19;;;;;;;5.72;1.55;;;;;;;10.89;100.00;98426.38;6266165;28;20078;-81
2023/04/01 01:35:26;;;;;;;3.78;2.15;;;;;;;10.89;100.00;98429.84;6274023;28;20049;-81
2023/04/01 01:38:31;;;;;;;2.63;1.55;;;;;;;10.83;100.00;98435.59;6273726;28;20125;-81
2023/04/01 01:41:34;;;;;;;3.22;1.80;;;;;;;10.78;100.00;98436.97;6249037;28;20052;-80
2023/04/01 01:44:37;;;;;;;2.35;1.27;;;;;;;10.83;100.00;98440.81;6223440;28;20038;-80
2023/04/01 01:47:40;;;;;;;6.32;1.63;;;;;;;10.88;100.00;98448.25;6253043;28;20113;-80
2023/04/01 01:50:42;;;;;;;3.20;1.75;;;;;;;10.81;100.00;98440.13;6221191;28;20686;-80
2023/04/01 01:53:43;;;;;;;3.97;1.58;;;;;;;10.86;100.00;98458.81;6250208;28;20061;-81
2023/04/01 01:56:49;;;;;;;2.83;1.80;;;;;;;10.79;100.00;98460.31;6255011;28;20042;-81
2023/04/01 01:59:55;;;;;;;2.38;1.40;;;;;;;10.82;100.00;98465.25;6261242;28;20121;-81
2023/04/01 02:02:57;;;;;;;2.20;1.58;;;;;;;10.71;100.00;98467.97;6229472;28;20409;-81
2023/04/01 02:06:00;;;;;;;;;;;;;;;10.77;100.00;98479.66;6258176;28;20038;-81
2023/04/01 02:09:03;;;;;;;;;;;;;;;10.60;100.00;98474.09;6234922;28;19921;-80
2023/04/01 02:12:07;;;;;;;2.75;1.33;;;;;;;10.53;100.00;98478.22;6257706;28;19998;-80
2023/04/01 02:15:12;;;;;;;1.63;1.10;;;;;;;10.55;100.00;98478.91;6251049;28;20049;-80
2023/04/01 02:18:14;;;;;;;3.90;1.27;;;;;;;10.40;100.00;98465.41;6227943;28;20088;-81
2023/04/01 02:21:16;;;;;;;2.92;1.40;;;;;;;10.37;100.00;98462.22;6229554;28;20099;-80
2023/04/01 02:24:22;;;;;;;1.92;1.05;;;;;;;10.41;100.00;98451.41;6231992;28;20401;-81
2023/04/01 02:27:24;;;;;;;5.20;1.15;;;;;;;10.37;100.00;98462.22;6251014;28;20048;-80
2023/04/01 02:30:27;;;;;;;1.17;1.02;;;;;;;10.45;100.00;98459.78;6247960;28;20041;-80
2023/04/01 02:33:29;;;;;;;8.77;1.38;;;;;;;10.28;100.00;98467.22;6239746;28;20524;-81
2023/04/01 02:36:30;;;;;;;2.38;1.30;;;;;;;10.29;100.00;98475.88;6205896;28;20064;-81
2023/04/01 02:39:30;;;;;;;2.63;1.65;;;;;;;10.32;100.00;98473.06;6223220;28;20049;-80
2023/04/01 02:42:31;;;;;;;2.20;1.63;;;;;;;10.38;100.00;98474.31;6226172;28;20048;-80
2023/04/01 02:45:32;;;;;;;3.55;1.60;;;;;;;10.38;100.00;98469.09;6225067;28;20050;-81
2023/04/01 02:48:34;;;;;;;1.65;1.25;;;;;;;10.32;100.00;98474.84;6205759;28;20046;-81
2023/04/01 02:51:34;;;;;;;2.67;1.17;;;;;;;10.23;100.00;98472.03;6223035;28;20116;-80
2023/04/01 02:54:35;;;;;;;1.70;1.08;;;;;;;10.28;100.00;98471.63;6244843;28;20042;-81
2023/04/01 02:57:38;;;;;;;1.08;0.95;;;;;;;10.33;100.00;98474.69;6247312;28;20107;-80
2023/04/01 03:00:39;;;;;;;1.33;1.23;;;;;;;10.36;100.00;98473.63;6242823;28;20072;-80
2023/04/01 03:03:40;;;;;;;1.15;1.05;;;;;;;10.24;100.00;98480.66;6271527;28;20131;-81
2023/04/01 03:06:41;;;;;;;1.42;1.15;;;;;;;10.13;100.00;98468.53;6250304;28;20069;-80
2023/04/01 03:09:42;;;;;;;2.65;1.48;;;;;;;10.20;100.00;98474.06;6247221;28;20050;-80
2023/04/01 03:12:43;;;;;;;1.88;1.42;;;;;;;10.14;100.00;98477.19;6229582;28;20049;-81
2023/04/01 03:15:44;;;;;;;1.70;1.15;;;;;;;10.12;100.00;98463.47;6254367;28;20041;-80
2023/04/01 03:18:45;;;;;;;1.48;1.20;;;;;;;10.19;100.00;98460.22;6217496;28;20042;-80
2023/04/01 03:21:45;;;;;;;2.13;1.42;;;;;;;10.16;100.00;98464.84;6222690;28;20046;-80
2023/04/01 03:24:50;;;;;;;2.17;1.60;;;;;;;10.18;100.00;98468.16;6205304;28;20042;-81
2023/04/01 03:27:51;;;;;;;1.65;1.23;;;;;;;10.14;100.00;98474.56;6244612;28;20400;-80
2023/04/01 03:30:51;;;;;;;1.58;1.10;;;;;;;10.13;100.00;98478.97;6247079;28;20049;-80
2023/04/01 03:33:52;;;;;;;1.55;1.17;;;;;;;10.04;100.00;98474.53;6247094;28;20046;-81
2023/04/01 03:36:53;;;;;;;1.00;0.93;;;;;;;9.98;100.00;98473.25;6246899;28;20092;-80
2023/04/01 03:39:54;;;;;;;1.58;1.00;;;;;;;10.04;100.00;98453.66;6247046;28;20092;-81
2023/04/01 03:42:55;;;;;;;2.05;0.85;;;;;;;9.99;100.00;98451.47;6246949;28;20049;-73
2023/04/01 03:45:57;;;;;;;1.13;1.03;;;;;;;9.97;100.00;98452.56;6252555;28;20049;-73
2023/04/01 03:48:59;;;;;;;2.55;1.15;;;;;;;9.83;100.00;98451.09;6228480;28;20339;-73
2023/04/01 03:51:59;;;;;;;4.28;1.48;;;;;;;9.83;100.00;98453.69;6228077;28;20045;-73
2023/04/01 03:55:01;;;;;;;4.45;1.23;;;;;;;9.84;100.00;98458.78;6245861;28;20072;-73
2023/04/01 03:58:03;;;;;;;1.10;1.00;;;;;;;9.79;100.00;98454.91;6229111;28;20067;-73
2023/04/01 04:01:17;;;;;;;5.38;1.83;;;;;;;9.86;100.00;98456.03;6229175;28;20115;-73
2023/04/01 04:04:18;;;;;;;3.17;1.48;;;;;;;9.78;100.00;98461.06;6229736;28;20053;-73
2023/04/01 04:07:19;;;;;;;1.40;1.30;;;;;;;9.75;100.00;98464.75;6236372;28;20045;-73
2023/04/01 04:10:20;;;;;;;1.10;1.00;;;;;;;9.73;100.00;98458.84;6228811;28;20477;-73
2023/04/01 04:13:21;;;;;;;1.63;1.38;;;;;;;9.76;100.00;98462.97;6246495;28;20137;-73
2023/04/01 04:16:21;;;;;;;2.47;1.10;;;;;;;9.71;100.00;98450.31;6255163;28;20049;-73
2023/04/01 04:19:22;;;;;;;2.03;1.48;;;;;;;9.80;100.00;98464.34;6235535;28;20053;-74
2023/04/01 04:22:23;;;;;;;1.25;1.00;;;;;;;9.76;100.00;98462.97;6236831;28;20045;-73
2023/04/01 04:25:24;;;;;;;1.20;1.08;;;;;;;9.67;100.00;98457.56;6250556;28;20056;-73
2023/04/01 04:28:26;;;;;;;1.60;1.23;;;;;;;9.63;100.00;98456.16;6232182;28;20049;-73
2023/04/01 04:31:28;;;;;;;1.23;1.08;;;;;;;9.64;100.00;98449.19;6247744;28;20073;-73
2023/04/01 04:34:29;;;;;;;5.63;1.30;;;;;;;9.73;100.00;98448.41;6240633;28;20116;-73
2023/04/01 04:37:30;;;;;;;2.70;1.42;;;;;;;9.76;100.00;98455.16;6249278;28;20051;-73
2023/04/01 04:40:31;;;;;;;3.00;1.42;;;;;;;9.71;100.00;98452.94;6249279;28;20088;-73
2023/04/01 04:43:31;;;;;;;2.90;1.73;;;;;;;9.74;100.00;98451.84;6255617;28;20091;-73
2023/04/01 04:46:32;;;;;;;1.20;1.10;;;;;;;9.71;100.00;98459.94;6257453;28;20037;-73
2023/04/01 04:49:33;;;;;;;2.85;0.93;;;;;;;9.63;100.00;98461.38;6257180;28;20049;-73
2023/04/01 04:52:34;;;;;;;1.63;1.05;;;;;;;9.63;100.00;98461.38;6256757;28;20045;-73
2023/04/01 04:55:35;;;;;;;1.65;1.30;;;;;;;9.53;100.00;98457.88;6257046;28;20044;-73
2023/04/01 04:58:37;;;;;;;3.22;1.30;;;;;;;9.55;100.00;98468.16;6256890;28;20037;-73
2023/04/01 05:01:38;;;;;;;2.53;1.35;;;;;;;9.47;100.00;98474.84;6256827;28;20095;-73
2023/04/01 05:04:39;;;;;;;1.85;0.98;;;;;;;9.45;100.00;98470.69;6256770;28;20048;-73
2023/04/01 05:07:40;;;;;;;4.78;0.95;;;;;;;9.46;100.00;98464.53;6256909;28;20392;-73
2023/04/01 05:10:41;;;;;;;5.15;0.77;;;;;;;9.42;100.00;98468.34;6256511;28;20134;-73
2023/04/01 05:13:45;;;;;;;2.15;1.27;;;;;;;9.39;100.00;98465.97;6256756;28;20056;-73
2023/04/01 05:16:46;;;;;;;1.17;0.82;;;;;;;9.34;100.00;98473.34;6256462;28;20095;-73
2023/04/01 05:19:46;;;;;;;1.13;0.90;;;;;;;9.29;100.00;98476.31;6256357;28;20444;-73
2023/04/01 05:22:50;;;;;;;3.22;1.40;;;;;;;9.26;100.00;98471.34;6274224;28;20501;-73
2023/04/01 05:25:52;;;;;;;8.75;1.38;;;;;;;9.24;100.00;98468.06;6274134;28;20045;-73
2023/04/01 05:28:53;;;;;;;2.47;1.30;;;;;;;9.29;100.00;98465.91;6273627;28;20056;-73
2023/04/01 05:31:54;;;;;;;2.03;1.25;;;;;;;9.40;100.00;98475.44;6274056;28;20045;-73
2023/04/01 05:34:55;;;;;;;1.10;0.80;;;;;;;9.40;100.00;98472.84;6272532;28;20079;-73
2023/04/01 05:37:56;;;;;;;2.58;1.42;;;;;;;9.57;100.00;98479.28;6247371;28;20052;-73
2023/04/01 05:41:01;;;;;;;4.78;1.48;;;;;;;9.64;100.00;98473.44;6231069;28;20053;-73
2023/04/01 05:44:02;;;;;;;4.03;1.33;;;;;;;9.70;100.00;98469.53;6244660;28;20038;-73
2023/04/01 05:47:04;;;;;;;1.75;1.27;;;;;;;9.81;100.00;98476.44;6206617;28;20520;-73
2023/04/01 05:50:05;;;;;;;2.05;1.42;;;;;;;9.87;100.00;98468.94;6206444;28;20056;-73
2023/04/01 05:53:06;;;;;;;1.85;1.38;;;;;;;10.06;100.00;98473.44;6224489;28;20046;-73
2023/04/01 05:56:09;;;;;;;2.28;1.55;;;;;;;10.03;100.00;98471.09;6206681;28;20096;-73
2023/04/01 05:59:11;;;;;;;1.83;1.23;;;;;;;10.21;100.00;98467.88;6206712;28;20092;-72
2023/04/01 06:02:12;;;;;;;2.08;1.17;;;;;;;10.25;100.00;98458.84;6224050;28;20081;-73
2023/04/01 06:05:18;;;;;;;2.47;1.35;;;;;;;10.47;100.00;98456.09;6206451;28;20052;-72
2023/04/01 06:08:19;;;;;;;4.78;1.77;;;;;;;10.41;100.00;98446.19;6206472;28;20065;-73
2023/04/01 06:12:00;;;;;;;1.65;1.52;;;;;;;10.52;100.00;98458.28;6206344;28;20184;-72
2023/04/01 06:15:27;;;;;;;3.55;1.95;;;;;;;10.62;100.00;98455.72;6227268;28;20038;-72
2023/04/01 06:18:37;;;;;;;2.83;1.77;;;;;;;10.89;100.00;98448.13;6225998;28;20040;-72
2023/04/01 06:22:04;;;;;;;2.03;1.25;;;;;;;11.02;100.00;98444.41;6247624;28;20052;-72
2023/04/01 06:25:18;;;;;;;3.80;2.03;;;;;;;10.87;100.00;98436.97;6212096;28;20115;-72
2023/04/01 06:28:46;;;;;;;3.95;1.92;;;;;;;10.95;100.00;98448.53;6229578;28;20049;-73
2023/04/01 06:31:47;;;;;;;3.45;1.48;;;;;;;10.92;100.00;98448.81;6225433;28;20045;-72
2023/04/01 06:35:00;;;;;;;2.08;1.65;;;;;;;10.95;100.00;98453.75;6229739;28;20057;-72
2023/04/01 06:38:12;;;;;;;4.30;2.20;;;;;;;10.96;100.00;98443.16;6241708;28;20044;-72
2023/04/01 06:41:32;;;;;;;2.33;1.48;;;;;;;10.73;100.00;98444.34;6247217;28;20052;-72
2023/04/01 06:44:41;;;;;;;6.25;4.15;;;;;;;10.75;100.00;98440.66;6228587;28;20420;-72
2023/04/01 06:48:11;;;;;;;5.60;3.80;;;;;;;10.87;100.00;98442.22;6244876;28;20042;-72
2023/04/01 06:51:33;;;;;;;5.72;2.55;;;;;;;11.13;100.00;98440.84;6196086;28;20049;-73
2023/04/01 06:54:47;;;;;;;4.63;2.63;;;;;;;11.32;100.00;98434.81;6229108;28;20455;-73
2023/04/01 06:57:51;;;;;;;4.63;2.05;;;;;;;11.46;100.00;98435.22;6245680;28;20076;-72
2023/04/01 07:01:00;;;;;;;4.45;2.33;;;;;;;11.70;100.00;98433.97;6229298;28;20433;-73
2023/04/01 07:04:11;;;;;;;3.78;1.48;;;;;;;11.89;100.00;98436.56;6245318;28;20520;-72
2023/04/01 07:07:24;;;;;;;2.38;1.65;;;;;;;11.88;100.00;98450.59;6227427;28;20164;-72
2023/04/01 07:11:03;;;;;;;1.85;1.25;;;;;;;12.04;100.00;98442.13;6242573;28;20045;-72
2023/04/01 07:14:17;;;;;;;5.47;1.45;;;;;;;12.02;100.00;98444.06;6128509;28;20524;-72
2023/04/01 07:17:25;;;;;;;3.03;1.65;;;;;;;12.05;100.00;98449.03;6247304;28;20119;-72
2023/04/01 07:20:30;;;;;;;3.97;1.90;;;;;;;12.12;100.00;98449.28;6247075;28;20458;-72
2023/04/01 07:23:42;;;;;;;3.08;1.80;;;;;;;12.30;99.84;98451.97;6229573;28;20041;-72
2023/04/01 07:26:43;;;;;;;2.30;1.65;;;;;;;12.55;99.91;98455.72;6247117;28;20064;-72
2023/04/01 07:29:44;;;;;;;3.05;1.90;;;;;;;12.47;96.13;98448.59;6247210;28;20038;-72
2023/04/01 07:33:08;;;;;;;2.10;1.50;;;;;;;12.66;96.75;98447.69;6244782;28;20048;-72
2023/04/01 07:36:31;;;;;;;2.63;1.55;;;;;;;12.82;94.46;98441.78;6242987;28;20103;-72
2023/04/01 07:40:07;;;;;;;2.15;1.45;;;;;;;13.15;93.27;98447.38;6230996;28;20509;-72
2023/04/01 07:43:20;;;;;;;2.35;1.30;;;;;;;13.07;90.08;98457.75;6203568;28;20057;-72
2023/04/01 07:46:20;;;;;;;3.70;1.30;;;;;;;12.96;91.65;98455.38;6227491;28;20048;-73
2023/04/01 07:49:38;;;;;;;3.25;1.33;;;;;;;12.88;90.36;98466.56;6246806;28;20054;-72
2023/04/01 07:52:57;;;;;;;2.22;1.65;;;;;;;13.23;90.23;98464.97;6247561;28;20056;-72
2023/04/01 07:55:58;;;;;;;2.10;1.25;;;;;;;13.38;88.06;98462.66;6233040;28;20708;-72
2023/04/01 07:59:29;;;;;;;5.15;2.05;;;;;;;13.46;86.45;98470.59;6245037;28;20054;-72
2023/04/01 08:03:03;;;;;;;3.35;1.70;;;;;;;13.65;86.49;98469.59;6231327;28;20094;-72
2023/04/01 08:06:56;;;;;;;2.75;1.02;;;;;;;13.97;83.93;98463.78;6231207;28;20045;-72
2023/04/01 08:10:19;;;;;;;2.78;1.75;;;;;;;13.78;85.42;98464.81;6125816;28;20493;-73
2023/04/01 08:13:44;;;;;;;1.63;1.25;;;;;;;14.11;84.61;98465.03;6231101;28;20041;-72
2023/04/01 08:17:02;;;;;;;2.17;1.20;;;;;;;14.08;82.14;98460.06;6231944;28;20060;-72
2023/04/01 08:20:18;;;;;;;1.58;1.13;;;;;;;14.30;80.00;98454.31;6250796;28;20080;-72
2023/04/01 08:23:24;;;;;;;3.85;1.83;;;;;;;14.48;82.32;98451.59;6233222;28;20445;-72
2023/04/01 08:26:44;;;;;;;3.28;1.90;;;;;;;14.69;79.82;98459.09;6233210;28;20038;-73
2023/04/01 08:40:52;;;;;;;2.78;1.88;;;;;;;13.26;81.43;98439.31;6343871;27;20377;-76
2023/04/01 08:44:09;;;;;;;4.50;2.05;;;;;;;13.63;82.52;98432.25;6342401;28;20067;-76
2023/04/01 08:47:19;;;;;;;2.95;1.42;;;;;;;14.50;80.25;98435.72;6343505;28;20044;-76
2023/04/01 08:51:13;;;;;;;2.30;1.33;;;;;;;13.92;79.14;98439.84;6344154;28;20127;-73
2023/04/01 08:54:40;;;;;;;4.07;1.85;;;;;;;13.48;80.75;98445.06;6278977;28;20059;-76
2023/04/01 08:58:19;;;;;;;2.72;1.73;;;;;;;13.33;82.79;98450.03;6337545;28;20089;-73
2023/04/01 09:01:55;;;;;;;2.03;1.50;;;;;;;13.59;81.46;98450.09;6342975;28;20060;-73
2023/04/01 09:05:14;;;;;;;2.20;1.55;;;;;;;13.37;82.55;98453.19;6341308;28;20048;-72
2023/04/01 09:08:18;;;;;;;1.15;1.05;;;;;;;13.33;80.97;98454.44;6342745;28;20036;-76
2023/04/01 09:11:28;;;;;;;2.65;1.42;;;;;;;13.33;79.45;98447.41;6342400;28;20976;-76
2023/04/01 09:15:11;;;;;;;1.55;1.42;;;;;;;13.58;80.36;98447.63;6342817;28;20040;-72
2023/04/01 09:18:56;;;;;;;1.95;1.60;;;;;;;13.85;79.28;98444.84;6339411;28;20058;-75
2023/04/01 09:22:22;;;;;;;6.53;1.60;;;;;;;14.50;73.03;98444.41;6343158;28;20040;-72
2023/04/01 09:25:45;;;;;;;1.55;1.45;;;;;;;15.06;71.46;98438.69;6341036;28;20089;-72
2023/04/01 09:29:08;;;;;;;4.65;1.50;;;;;;;15.55;70.77;98432.66;6341918;28;20044;-72
2023/04/01 09:32:27;;;;;;;;;;;;;;;15.49;70.97;98442.81;6342346;28;20039;-76
2023/04/01 09:35:53;;;;;;;1.20;1.10;;;;;;;15.69;71.27;98439.88;6342424;28;19963;-76
2023/04/01 09:38:57;;;;;;;1.70;1.33;;;;;;;15.07;69.94;98435.06;6340793;28;20109;-72
2023/04/01 09:42:29;;;;;;;3.50;1.60;;;;;;;14.87;74.53;98445.88;6323382;28;20421;-72
2023/04/01 09:46:07;;;;;;;1.98;1.42;;;;;;;14.90;73.92;98447.34;6323822;28;20047;-72
2023/04/01 09:49:26;;;;;;;1.45;1.27;;;;;;;15.28;71.33;98447.75;6324759;28;20480;-72
2023/04/01 09:53:05;;;;;;;1.80;1.38;;;;;;;15.42;72.18;98452.38;6324950;28;20048;-73
2023/04/01 09:56:15;;;;;;;1.40;1.27;;;;;;;15.70;69.95;98446.75;6273206;28;20044;-72
2023/04/01 09:59:34;;;;;;;3.25;1.42;;;;;;;15.92;71.21;98440.03;6323683;28;20044;-72
2023/04/01 10:03:05;;;;;;;1.30;1.17;;;;;;;16.27;69.88;98441.44;6322314;28;20047;-72
2023/04/01 10:06:35;;;;;;;2.03;1.42;;;;;;;16.09;67.25;98432.94;6306671;28;20135;-72
2023/04/01 10:09:55;;;;;;;1.30;1.20;;;;;;;16.08;66.63;98437.38;6306224;28;20171;-72
2023/04/01 10:13:08;;;;;;;2.10;1.35;;;;;;;15.94;65.78;98429.31;6308449;28;20037;-72
2023/04/01 10:16:53;;;;;;;1.67;1.33;;;;;;;16.00;68.93;98428.66;6307881;28;20085;-72
2023/04/01 10:20:00;;;;;;;2.45;1.30;;;;;;;16.30;66.82;98427.09;6304707;28;20415;-73
2023/04/01 10:23:25;;;;;;;2.33;1.50;;;;;;;16.46;65.71;98420.97;6324580;28;20040;-72
2023/04/01 10:26:57;;;;;;;6.35;1.63;;;;;;;16.43;65.25;98427.41;6324335;28;20040;-72
2023/04/01 10:30:31;;;;;;;1.80;1.40;;;;;;;16.68;63.28;98427.28;6300333;28;20446;-72
2023/04/01 10:33:41;;;;;;;3.13;1.63;;;;;;;16.74;63.78;98426.59;6298964;28;20068;-72
2023/04/01 10:36:48;;;;;;;2.70;1.55;;;;;;;16.55;61.63;98429.66;6303340;28;20064;-72
2023/04/01 10:40:26;;;;;;;1.55;1.45;;;;;;;16.54;63.41;98428.81;6297545;28;20052;-72
2023/04/01 10:43:36;;;;;;;1.73;1.25;;;;;;;16.54;64.75;98434.09;6298972;28;20040;-73
2023/04/01 10:47:15;;;;;;;1.92;1.50;;;;;;;16.47;63.78;98425.22;6320136;28;20502;-72
2023/04/01 10:50:36;;;;;;;2.58;1.50;;;;;;;16.64;63.51;98424.19;6279188;28;20139;-73
2023/04/01 10:53:45;;;;;;;1.50;1.30;;;;;;;16.68;64.38;98416.75;6296989;28;20052;-72
2023/04/01 10:56:58;;;;;;;2.35;1.50;;;;;;;16.55;64.09;98417.28;6300669;28;20078;-72
2023/04/01 11:00:44;;;;;;;2.05;1.40;;;;;;;16.53;64.16;98416.63;6297047;28;20416;-72
2023/04/01 11:03:54;;;;;;;4.30;1.23;;;;;;;16.84;64.37;98407.97;6297963;28;20056;-72
2023/04/01 11:07:22;;;;;;;1.95;1.23;;;;;;;17.07;61.97;98418.50;6316222;28;20036;-72
2023/04/01 11:11:02;;;;;;;4.68;1.55;;;;;;;16.84;60.29;98410.59;6322034;28;20036;-72
2023/04/01 11:14:25;;;;;;;3.42;1.20;;;;;;;17.03;60.79;98409.34;6323220;28;20104;-72
2023/04/01 11:17:35;;;;;;;1.23;1.10;;;;;;;16.21;59.20;98400.00;6322999;28;20047;-72
2023/04/01 11:20:58;;;;;;;1.70;1.13;;;;;;;17.37;58.00;98408.91;6323143;28;20479;-72
2023/04/01 11:24:37;;;;;;;1.33;1.10;;;;;;;17.26;58.95;98406.69;6323158;28;20047;-73
2023/04/01 11:28:02;;;;;;;4.45;1.42;;;;;;;17.39;57.10;98411.38;6321524;28;20130;-73
2023/04/01 11:31:42;;;;;;;1.15;1.05;;;;;;;17.25;59.17;98410.31;6321620;28;20040;-72
2023/04/01 11:35:01;;;;;;;2.35;1.20;;;;;;;17.12;59.52;98414.38;6321450;28;20046;-73
2023/04/01 11:38:06;;;;;;;4.40;1.23;;;;;;;17.62;59.84;98408.69;6302578;28;20040;-73
2023/04/01 11:41:41;;;;;;;1.95;1.05;;;;;;;18.10;57.40;98411.91;6303079;28;20048;-72
2023/04/01 11:45:08;;;;;;;1.83;1.13;;;;;;;18.18;54.75;98411.81;6306550;28;20057;-72
2023/04/01 11:48:15;;;;;;;5.38;1.10;;;;;;;17.82;53.73;98406.38;6308949;28;20101;-72
2023/04/01 11:51:15;;;;;;;2.63;1.00;;;;;;;17.92;54.70;98401.69;6305645;28;20056;-72
2023/04/01 11:54:52;;;;;;;2.67;1.17;;;;;;;18.06;54.89;98403.53;6302605;28;20044;-72
2023/04/01 11:58:17;;;;;;;1.83;1.02;;;;;;;18.67;52.86;98391.88;6321820;28;20430;-72
2023/04/01 12:01:26;;;;;;;1.00;0.80;;;;;;;19.08;53.08;98397.41;6322058;28;20036;-72
2023/04/01 12:04:56;;;;;;;1.83;1.05;;;;;;;19.33;52.43;98400.53;6307422;28;20095;-72
2023/04/01 12:08:17;;;;;;;2.45;1.35;;;;;;;19.36;51.94;98393.22;6283608;28;20059;-72
2023/04/01 12:11:36;;;;;;;1.20;1.10;;;;;;;18.79;52.99;98384.31;6295415;28;20040;-72
2023/04/01 12:15:02;;;;;;;1.83;1.10;;;;;;;17.90;52.92;98396.59;6295580;28;20052;-72
2023/04/01 12:18:22;;;;;;;1.80;1.15;;;;;;;17.00;55.29;98404.41;6319092;28;20395;-72
2023/04/01 12:21:36;;;;;;;5.78;1.25;;;;;;;17.42;56.62;98398.66;6321577;28;20403;-72
2023/04/01 12:25:17;;;;;;;1.80;1.00;;;;;;;17.11;54.69;98391.66;6320568;28;20395;-72
2023/04/01 12:28:18;;;;;;;1.03;0.93;;;;;;;17.05;56.68;98396.81;6313079;28;20132;-72
2023/04/01 12:31:31;;;;;;;1.38;0.90;;;;;;;16.60;57.16;98385.19;6296600;28;20043;-72
2023/04/01 12:34:45;;;;;;;3.45;1.80;;;;;;;16.82;59.46;98391.50;6295703;28;20501;-72
2023/04/01 12:38:02;;;;;;;4.85;1.95;;;;;;;17.64;57.46;98394.34;6305940;28;20390;-72
2023/04/01 12:41:05;;;;;;;5.43;1.73;;;;;;;18.34;55.28;98392.28;6298600;28;20043;-72
2023/04/01 12:44:35;;;;;;;2.22;1.23;;;;;;;17.66;53.44;98387.06;6296126;28;20037;-72
2023/04/01 12:48:06;;;;;;;0.82;0.82;;;;;;;17.32;54.32;98401.53;6296145;28;20036;-72
2023/04/01 12:51:43;;;;;;;1.20;1.10;;;;;;;17.38;54.35;98393.91;6296123;28;20165;-72
2023/04/01 12:55:06;;;;;;;1.02;0.90;;;;;;;17.47;55.76;98390.22;6304921;28;20047;-72
2023/04/01 12:58:34;;;;;;;1.90;0.95;;;;;;;17.75;55.62;98394.88;6314091;28;20189;-72
2023/04/01 13:01:54;;;;;;;1.10;0.85;;;;;;;17.15;55.19;98400.00;6297762;28;20086;-75
2023/04/01 13:05:20;;;;;;;1.67;1.10;;;;;;;17.13;54.09;98394.09;6329226;28;20040;-75
2023/04/01 13:08:26;;;;;;;3.70;1.40;;;;;;;17.38;56.07;98393.91;6312236;28;20051;-75
2023/04/01 13:11:46;;;;;;;2.85;1.55;;;;;;;17.41;55.15;98394.38;6305798;28;20102;-75
2023/04/01 13:15:05;;;;;;;4.72;1.80;;;;;;;17.13;56.08;98404.63;6299693;28;20508;-75
2023/04/01 13:18:14;;;;;;;2.88;1.70;;;;;;;17.02;56.86;98394.50;6316841;28;20056;-72
2023/04/01 13:21:52;;;;;;;1.95;1.00;;;;;;;16.77;55.82;98393.81;6311809;28;20070;-72
2023/04/01 13:25:10;;;;;;;2.33;1.30;;;;;;;17.12;56.38;98398.56;6300390;28;20064;-72
2023/04/01 13:28:25;;;;;;;1.10;1.00;;;;;;;17.44;54.38;98401.09;6298935;28;20377;-72
2023/04/01 13:31:53;;;;;;;1.30;0.70;;;;;;;17.46;55.56;98405.22;6300192;28;20045;-72
2023/04/01 13:35:10;;;;;;;1.65;1.20;;;;;;;17.20;54.66;98408.22;6300634;28;20040;-72
2023/04/01 13:38:20;;;;;;;1.60;1.08;;;;;;;17.37;55.15;98408.91;6299728;28;20056;-72
2023/04/01 13:41:23;;;;;;;4.85;0.98;;;;;;;16.78;55.75;98396.28;6300062;28;20043;-72
2023/04/01 13:44:56;;;;;;;2.50;1.02;;;;;;;16.77;56.03;98401.72;6299908;28;20037;-72
2023/04/01 13:48:15;;;;;;;;;;;;;;;17.26;57.37;98406.69;6300425;28;20123;-72
2023/04/01 13:51:21;;;;;;;1.50;1.02;;;;;;;17.42;56.21;98408.38;6310607;28;19971;-72
2023/04/01 13:54:39;;;;;;;12.90;4.10;;;;;;;17.65;55.80;98409.16;6315154;28;20055;-72
2023/04/01 13:57:54;;;;;;;1.95;1.45;;;;;;;17.46;56.80;98418.41;6315227;28;20435;-72
2023/04/01 14:01:14;;;;;;;9.40;3.65;;;;;;;17.36;56.94;98409.91;6299586;28;20040;-72
2023/04/01 14:04:34;;;;;;;2.30;1.33;;;;;;;17.33;56.00;98408.44;6298379;28;20043;-72
2023/04/01 14:07:55;;;;;;;3.13;2.17;;;;;;;17.38;55.38;98402.66;6299443;28;20071;-72
2023/04/01 14:11:13;;;;;;;6.50;2.35;;;;;;;17.37;56.43;98414.19;6299816;28;20075;-75
2023/04/01 14:14:40;;;;;;;1.67;1.10;;;;;;;17.08;55.25;98404.34;6299384;28;20043;-72
2023/04/01 14:17:49;;;;;;;1.67;1.05;;;;;;;16.88;55.42;98406.63;6298423;28;20515;-75
2023/04/01 14:21:13;;;;;;;1.58;0.98;;;;;;;16.94;56.94;98405.09;6307745;28;20036;-74
2023/04/01 14:24:32;;;;;;;3.08;1.10;;;;;;;17.11;56.14;98404.84;6302568;28;20546;-75
2023/04/01 14:27:57;;;;;;;2.53;1.30;;;;;;;17.01;56.52;98406.88;6312990;28;20495;-75
2023/04/01 14:31:19;;;;;;;1.90;1.20;;;;;;;17.12;55.27;98409.09;6324742;28;20472;-74
2023/04/01 14:34:20;;;;;;;;;;;;;;;16.92;55.73;98406.13;6325143;28;20047;-74
2023/04/01 14:37:27;;;;;;;1.08;0.90;;;;;;;16.92;56.49;98410.53;6324310;28;19920;-72
2023/04/01 14:40:42;;;;;;;3.22;1.33;;;;;;;16.93;56.71;98404.28;6323577;28;20082;-72
2023/04/01 14:43:52;;;;;;;4.35;0.82;;;;;;;16.73;56.25;98406.50;6322449;28;20077;-71
2023/04/01 14:47:17;;;;;;;2.28;0.95;;;;;;;16.79;56.06;98400.56;6322519;28;20044;-72
2023/04/01 14:50:40;;;;;;;2.00;1.25;;;;;;;16.77;56.27;98412.25;6322419;28;20071;-72
2023/04/01 14:53:58;;;;;;;1.60;1.15;;;;;;;16.79;55.63;98405.00;6301570;28;20078;-72
2023/04/01 14:57:30;;;;;;;1.15;1.02;;;;;;;16.84;56.36;98407.97;6298067;28;20032;-72
2023/04/01 15:00:41;;;;;;;2.97;0.77;;;;;;;16.58;54.24;98408.25;6306510;28;20047;-72
2023/04/01 15:03:48;;;;;;;1.52;1.00;;;;;;;16.35;55.30;98406.38;6299491;28;20041;-72
2023/04/01 15:07:04;;;;;;;2.75;1.10;;;;;;;16.31;55.63;98416.41;6315020;28;20036;-72
2023/04/01 15:10:26;;;;;;;0.85;0.50;;;;;;;16.20;55.47;98413.31;6321714;28;20040;-72
2023/04/01 15:13:30;;;;;;;1.83;1.05;;;;;;;16.41;57.85;98413.59;6311606;28;20039;-72
2023/04/01 15:16:41;;;;;;;1.88;1.23;;;;;;;16.30;58.61;98420.03;6297677;28;20047;-72